Time;durP1;ratioP1;P1;durP2;ratioP2;P2;SDS_P1;SDS_P2;PMS_P1;PMS_P2;Temp;Humidity;BMP_temperature;BMP_pressure;BME280_temperature;BME280_humidity;BME280_pressure;Samples;Min_cycle;Max_cycle;Signal;HPM_P1;HPM_P2
2021/06/25 00:00:24;;;;;;;12.27;11.02;;;29.40;50.90;;;;;;4388335;32;20054;-38
2021/06/25 00:02:50;;;;;;;12.32;10.73;;;29.40;50.80;;;;;;4386682;32;20466;-38
2021/06/25 00:05:17;;;;;;;13.13;11.82;;;29.40;50.80;;;;;;4388404;32;20049;-38
2021/06/25 00:07:43;;;;;;;11.90;10.57;;;29.40;50.80;;;;;;4372255;32;20121;-38
2021/06/25 00:10:11;;;;;;;16.62;10.77;;;29.50;50.90;;;;;;4385520;32;20651;-38
2021/06/25 00:12:37;;;;;;;12.55;10.00;;;29.40;50.80;;;;;;4385543;32;20069;-38
2021/06/25 00:15:07;;;;;;;11.32;9.75;;;29.50;50.70;;;;;;4372892;32;20588;-38
2021/06/25 00:17:33;;;;;;;12.00;10.80;;;29.50;50.60;;;;;;4385774;32;20061;-38
2021/06/25 00:20:00;;;;;;;14.55;11.15;;;29.50;50.70;;;;;;4385557;32;20054;-38
2021/06/25 00:22:26;;;;;;;14.02;11.43;;;29.50;50.80;;;;;;4385893;32;20082;-37
2021/06/25 00:24:53;;;;;;;12.23;11.02;;;29.50;50.90;;;;;;4385704;32;20066;-38
2021/06/25 00:27:20;;;;;;;13.20;10.85;;;29.50;51.00;;;;;;4385752;32;20567;-38
2021/06/25 00:29:46;;;;;;;15.43;10.63;;;29.50;51.10;;;;;;4373198;32;20146;-38
2021/06/25 00:32:12;;;;;;;13.38;11.52;;;29.50;50.90;;;;;;4373007;32;20062;-37
2021/06/25 00:34:39;;;;;;;11.20;10.10;;;29.50;50.80;;;;;;4372733;32;20558;-38
2021/06/25 00:37:06;;;;;;;14.77;11.02;;;29.50;50.90;;;;;;4373059;32;20070;-36
2021/06/25 00:39:32;;;;;;;13.20;11.20;;;29.50;51.10;;;;;;4388066;32;20062;-37
2021/06/25 00:41:59;;;;;;;13.80;11.15;;;29.50;51.40;;;;;;4376840;32;20518;-36
2021/06/25 00:44:25;;;;;;;11.75;10.57;;;29.50;51.20;;;;;;4388509;32;20104;-38
2021/06/25 00:46:52;;;;;;;13.10;11.40;;;29.60;51.00;;;;;;4388892;32;20476;-38
2021/06/25 00:49:18;;;;;;;16.08;11.38;;;29.60;50.90;;;;;;4388208;32;20066;-38
2021/06/25 00:51:45;;;;;;;15.50;11.40;;;29.70;51.30;;;;;;4388500;32;20074;-38
2021/06/25 00:54:12;;;;;;;13.25;11.70;;;29.70;51.30;;;;;;4388732;32;20194;-38
2021/06/25 00:56:39;;;;;;;12.93;10.88;;;29.70;51.30;;;;;;4388519;32;20086;-36
2021/06/25 00:59:05;;;;;;;17.37;11.18;;;29.80;51.20;;;;;;4388000;32;20046;-36
2021/06/25 01:01:32;;;;;;;16.75;10.95;;;29.80;51.00;;;;;;4388492;32;20160;-37
2021/06/25 01:03:58;;;;;;;23.02;12.30;;;29.90;51.00;;;;;;4388128;32;20256;-35
2021/06/25 01:06:25;;;;;;;16.15;11.63;;;30.00;50.90;;;;;;4388454;32;20057;-37
2021/06/25 01:08:51;;;;;;;24.95;13.93;;;30.10;50.90;;;;;;4387921;32;20070;-36
2021/06/25 01:11:18;;;;;;;18.70;12.90;;;30.10;50.70;;;;;;4387969;32;20062;-38
2021/06/25 01:13:44;;;;;;;17.92;12.50;;;30.30;50.80;;;;;;4375630;32;20066;-37
2021/06/25 01:16:11;;;;;;;16.42;11.93;;;30.40;50.50;;;;;;4387785;32;20069;-38
2021/06/25 01:18:37;;;;;;;15.68;12.13;;;30.50;50.30;;;;;;4387841;32;20097;-38
2021/06/25 01:21:04;;;;;;;18.12;12.57;;;30.70;50.10;;;;;;4347847;32;20179;-38
2021/06/25 01:23:31;;;;;;;18.10;13.02;;;30.80;50.00;;;;;;4372621;32;20153;-37
2021/06/25 01:25:57;;;;;;;28.00;13.02;;;31.00;50.00;;;;;;4348259;32;20124;-38
2021/06/25 01:28:23;;;;;;;18.02;13.62;;;31.00;50.00;;;;;;4372607;32;20612;-37
2021/06/25 01:30:50;;;;;;;23.52;14.77;;;31.10;50.30;;;;;;4347901;32;20090;-38
2021/06/25 01:33:18;;;;;;;17.77;12.60;;;31.20;50.40;;;;;;4347717;32;20074;-38
2021/06/25 01:35:45;;;;;;;19.42;14.05;;;31.20;50.20;;;;;;4372714;32;20159;-38
2021/06/25 01:38:12;;;;;;;18.90;14.52;;;31.30;50.30;;;;;;4360632;32;20129;-38
2021/06/25 01:40:40;;;;;;;20.98;13.68;;;31.30;50.20;;;;;;4372386;32;20616;-38
2021/06/25 01:43:07;;;;;;;13.77;12.07;;;31.40;50.40;;;;;;4372663;32;20094;-37
2021/06/25 01:45:35;;;;;;;17.40;13.90;;;31.40;50.10;;;;;;4360177;32;20138;-37
2021/06/25 01:48:02;;;;;;;14.98;12.90;;;31.40;50.10;;;;;;4363570;32;20200;-37
2021/06/25 01:50:36;;;;;;;16.62;13.07;;;31.40;50.10;;;;;;4360353;32;20105;-38
2021/06/25 01:53:03;;;;;;;;;;;31.50;50.20;;;;;;4386493;32;20097;-37
2021/06/25 01:55:41;;;;;;;14.20;12.55;;;31.70;50.00;;;;;;4387863;32;19993;-37
2021/06/25 01:58:19;;;;;;;17.33;12.48;;;31.90;49.70;;;;;;4376300;32;20101;-37
2021/06/25 02:01:16;;;;;;;14.77;11.52;;;32.10;49.50;;;;;;4387429;32;20636;-38
2021/06/25 02:03:47;;;;;;;15.45;10.95;;;32.30;49.20;;;;;;4377049;32;20151;-38
2021/06/25 02:06:14;;;;;;;15.38;11.85;;;32.60;48.60;;;;;;4374840;32;20521;-37
2021/06/25 02:08:40;;;;;;;15.77;11.60;;;32.70;48.30;;;;;;4375018;32;20093;-37
2021/06/25 02:11:08;;;;;;;17.25;10.82;;;32.90;47.90;;;;;;4342124;33;20094;-37
2021/06/25 02:13:35;;;;;;;15.50;12.10;;;33.10;47.70;;;;;;4300669;33;20611;-37
2021/06/25 02:16:01;;;;;;;13.02;11.90;;;33.40;47.40;;;;;;4312992;33;20178;-37
2021/06/25 02:18:28;;;;;;;13.30;12.07;;;33.60;47.00;;;;;;4313296;33;20504;-37
2021/06/25 02:20:54;;;;;;;13.02;11.10;;;33.80;46.70;;;;;;4312550;33;20074;-37
2021/06/25 02:23:21;;;;;;;17.02;11.55;;;33.90;46.40;;;;;;4312934;33;20155;-38
2021/06/25 02:25:47;;;;;;;12.50;11.25;;;34.10;45.90;;;;;;4312805;33;20087;-38
2021/06/25 02:28:14;;;;;;;13.30;11.32;;;34.20;45.50;;;;;;4298153;33;20150;-38
2021/06/25 02:30:40;;;;;;;14.15;11.70;;;34.40;45.20;;;;;;4298497;33;20088;-37
2021/06/25 02:33:07;;;;;;;11.20;10.10;;;34.50;44.50;;;;;;4297829;33;20072;-37
2021/06/25 02:35:33;;;;;;;13.00;11.32;;;34.60;44.30;;;;;;4298275;33;20071;-36
2021/06/25 02:38:00;;;;;;;13.82;12.63;;;34.80;44.10;;;;;;4298024;33;20075;-37
2021/06/25 02:40:26;;;;;;;14.13;11.50;;;34.80;43.90;;;;;;4297665;33;20076;-36
2021/06/25 02:42:53;;;;;;;13.52;12.15;;;34.90;43.90;;;;;;4321473;33;20067;-36
2021/06/25 02:45:19;;;;;;;13.98;11.73;;;34.90;43.60;;;;;;4327443;33;20071;-36
2021/06/25 02:47:46;;;;;;;12.57;11.43;;;34.80;43.30;;;;;;4334330;32;20077;-36
2021/06/25 02:50:13;;;;;;;18.02;12.85;;;34.70;43.40;;;;;;4356983;32;20108;-37
2021/06/25 02:52:40;;;;;;;12.63;11.35;;;34.70;43.60;;;;;;4356678;32;20138;-37
2021/06/25 02:55:09;;;;;;;13.93;12.37;;;34.70;42.90;;;;;;4356788;32;20140;-36
2021/06/25 02:57:36;;;;;;;12.35;11.15;;;34.70;42.70;;;;;;4344112;32;20062;-36
2021/06/25 03:00:05;;;;;;;14.57;12.32;;;34.60;42.70;;;;;;4356593;32;20197;-36
2021/06/25 03:02:32;;;;;;;13.62;12.20;;;34.50;43.40;;;;;;4356271;32;20089;-37
2021/06/25 03:04:58;;;;;;;14.02;12.40;;;34.50;43.20;;;;;;4366080;32;20057;-37
2021/06/25 03:07:25;;;;;;;12.88;11.57;;;34.60;43.20;;;;;;4403890;32;20096;-37
2021/06/25 03:09:51;;;;;;;17.17;12.63;;;34.80;43.20;;;;;;4403969;32;20085;-37
2021/06/25 03:12:17;;;;;;;16.02;11.12;;;35.00;42.50;;;;;;4403748;32;20073;-37
2021/06/25 03:14:44;;;;;;;15.40;11.27;;;35.20;42.50;;;;;;4389874;32;20069;-36
2021/06/25 03:17:10;;;;;;;13.85;12.43;;;35.30;41.80;;;;;;4377066;32;20184;-37
2021/06/25 03:19:37;;;;;;;20.12;11.63;;;35.40;42.00;;;;;;4403885;32;20081;-37
2021/06/25 03:22:04;;;;;;;12.48;11.18;;;35.60;42.10;;;;;;4403801;32;20054;-37
2021/06/25 03:24:31;;;;;;;13.20;11.75;;;35.70;41.50;;;;;;4389951;32;20072;-38
2021/06/25 03:26:57;;;;;;;15.50;12.25;;;35.90;41.50;;;;;;4389784;32;20069;-38
2021/06/25 03:29:24;;;;;;;12.68;11.38;;;36.10;41.20;;;;;;4404139;32;20547;-37
2021/06/25 03:31:50;;;;;;;16.58;14.60;;;36.10;40.80;;;;;;4404283;32;20066;-38
2021/06/25 03:34:17;;;;;;;19.12;12.25;;;36.30;40.60;;;;;;4403921;32;20046;-37
2021/06/25 03:36:44;;;;;;;12.95;11.70;;;36.40;40.10;;;;;;4403588;32;20088;-37
2021/06/25 03:39:10;;;;;;;12.85;11.55;;;36.60;39.80;;;;;;4355512;32;20070;-37
2021/06/25 03:41:37;;;;;;;13.02;11.85;;;36.80;39.10;;;;;;4356050;32;20092;-38
2021/06/25 03:44:03;;;;;;;12.80;11.55;;;37.00;38.70;;;;;;4328783;33;20143;-38
2021/06/25 03:46:30;;;;;;;12.13;10.95;;;37.20;38.20;;;;;;4328769;33;20065;-37
2021/06/25 03:48:56;;;;;;;12.57;11.50;;;37.30;38.10;;;;;;4352721;32;20522;-36
2021/06/25 03:51:23;;;;;;;15.85;11.52;;;37.40;37.90;;;;;;4356054;32;20107;-36
2021/06/25 03:53:49;;;;;;;13.25;10.23;;;37.60;37.80;;;;;;4325664;33;20078;-37
2021/06/25 03:56:16;;;;;;;13.05;10.82;;;37.70;37.90;;;;;;4325852;33;20074;-36
2021/06/25 03:58:48;;;;;;;13.30;11.10;;;38.00;37.70;;;;;;4314068;33;20086;-38
2021/06/25 04:01:15;;;;;;;13.38;12.02;;;38.20;37.60;;;;;;4314055;33;20082;-38
2021/06/25 04:03:42;;;;;;;14.15;11.68;;;38.30;37.20;;;;;;4326092;33;20068;-38
2021/06/25 04:06:08;;;;;;;13.85;12.02;;;38.40;37.30;;;;;;4326018;33;20075;-38
2021/06/25 04:08:35;;;;;;;14.63;11.68;;;38.40;37.40;;;;;;4313604;33;20083;-38
2021/06/25 04:11:03;;;;;;;13.27;12.05;;;38.40;37.40;;;;;;4314178;33;20128;-38
2021/06/25 04:13:30;;;;;;;13.00;11.70;;;38.30;37.20;;;;;;4325528;33;20067;-38
2021/06/25 04:15:57;;;;;;;14.15;12.73;;;38.40;37.60;;;;;;4344788;32;20065;-38
2021/06/25 04:18:24;;;;;;;14.55;12.40;;;38.50;37.50;;;;;;4355037;32;20066;-38
2021/06/25 04:20:51;;;;;;;13.35;11.90;;;38.70;37.30;;;;;;4355496;32;20078;-38
2021/06/25 04:23:18;;;;;;;14.85;12.02;;;38.90;36.90;;;;;;4355861;32;20078;-39
2021/06/25 04:25:45;;;;;;;13.38;11.73;;;39.00;36.80;;;;;;4355297;32;20155;-37
2021/06/25 04:28:12;;;;;;;14.13;11.98;;;39.00;36.60;;;;;;4331014;32;20069;-37
2021/06/25 04:30:41;;;;;;;14.95;11.90;;;39.00;36.60;;;;;;4362902;32;20061;-37
2021/06/25 04:33:09;;;;;;;14.05;12.55;;;39.00;36.30;;;;;;4385652;32;20112;-38
2021/06/25 04:35:36;;;;;;;13.00;11.60;;;39.00;36.30;;;;;;4385664;32;20476;-38
2021/06/25 04:38:03;;;;;;;14.18;12.95;;;39.10;36.20;;;;;;4384950;32;20062;-37
2021/06/25 04:40:34;;;;;;;12.98;11.60;;;39.10;36.10;;;;;;4372898;32;20634;-38
2021/06/25 04:43:00;;;;;;;13.50;12.25;;;39.10;36.10;;;;;;4384986;32;20104;-39
2021/06/25 04:45:27;;;;;;;15.38;12.57;;;39.10;35.90;;;;;;4385216;32;20054;-37
2021/06/25 04:47:53;;;;;;;13.20;11.95;;;39.10;35.90;;;;;;4379961;32;20065;-38
2021/06/25 04:50:20;;;;;;;22.40;13.35;;;38.80;36.10;;;;;;4371957;32;20093;-38
2021/06/25 04:52:46;;;;;;;14.30;12.02;;;38.70;36.10;;;;;;4387776;32;20058;-38
2021/06/25 04:55:13;;;;;;;13.57;12.30;;;38.60;36.40;;;;;;4373558;32;20080;-38
2021/06/25 04:57:46;;;;;;;13.70;12.45;;;38.60;36.60;;;;;;4388260;32;20085;-38
2021/06/25 05:00:14;;;;;;;13.13;11.93;;;38.60;36.60;;;;;;4373570;32;20077;-38
2021/06/25 05:02:40;;;;;;;13.15;11.88;;;38.70;36.50;;;;;;4373965;32;20516;-38
2021/06/25 05:05:08;;;;;;;13.00;11.63;;;38.70;36.20;;;;;;4387913;32;20046;-38
2021/06/25 05:07:34;;;;;;;13.50;11.93;;;38.80;35.80;;;;;;4387542;32;20150;-37
2021/06/25 05:10:00;;;;;;;14.23;12.82;;;39.00;35.50;;;;;;4387108;32;20504;-37
2021/06/25 05:12:27;;;;;;;13.35;11.45;;;39.00;35.40;;;;;;4387488;32;20066;-38
2021/06/25 05:14:53;;;;;;;13.70;12.05;;;39.10;35.90;;;;;;4354884;32;20070;-38
2021/06/25 05:17:20;;;;;;;13.38;11.95;;;39.30;35.00;;;;;;4354801;32;20720;-40
2021/06/25 05:19:46;;;;;;;16.70;13.68;;;39.30;35.00;;;;;;4354870;32;20597;-38
2021/06/25 05:22:13;;;;;;;13.95;12.50;;;39.30;35.10;;;;;;4354827;32;20082;-37
2021/06/25 05:24:39;;;;;;;13.32;11.65;;;39.20;35.10;;;;;;4355252;32;20091;-37
2021/06/25 05:27:07;;;;;;;15.30;12.90;;;39.20;35.30;;;;;;4357572;32;20062;-39
2021/06/25 05:29:33;;;;;;;13.10;11.95;;;39.40;35.10;;;;;;4345492;32;20166;-38
2021/06/25 05:31:59;;;;;;;14.45;11.95;;;39.40;35.00;;;;;;4344975;32;20581;-37
2021/06/25 05:34:27;;;;;;;14.10;12.80;;;39.30;35.30;;;;;;4357403;32;20583;-38
2021/06/25 05:36:54;;;;;;;13.73;12.52;;;39.30;35.10;;;;;;4357611;32;20092;-38
2021/06/25 05:39:21;;;;;;;14.07;12.63;;;39.40;35.20;;;;;;4357854;32;20059;-38
2021/06/25 05:41:48;;;;;;;13.43;12.13;;;39.30;35.10;;;;;;4345527;32;20086;-37
2021/06/25 05:44:14;;;;;;;14.00;12.35;;;39.40;35.30;;;;;;4357647;32;20189;-38
2021/06/25 05:46:41;;;;;;;18.37;13.68;;;39.30;34.80;;;;;;4333115;32;20150;-38
2021/06/25 05:49:07;;;;;;;15.85;13.52;;;39.40;35.10;;;;;;4370792;32;20093;-38
2021/06/25 05:51:34;;;;;;;15.93;14.15;;;39.50;35.20;;;;;;4377897;32;20143;-38
2021/06/25 05:54:00;;;;;;;15.38;13.98;;;39.50;34.70;;;;;;4405148;32;20161;-38
2021/06/25 05:56:26;;;;;;;14.00;12.52;;;39.50;34.50;;;;;;4404782;32;20061;-38
2021/06/25 05:58:53;;;;;;;13.65;12.25;;;39.20;34.80;;;;;;4404862;32;20077;-38
2021/06/25 06:01:19;;;;;;;17.20;12.70;;;39.20;34.90;;;;;;4404783;32;20161;-38
2021/06/25 06:03:46;;;;;;;16.25;14.27;;;39.20;34.90;;;;;;4404931;32;20073;-38
2021/06/25 06:06:12;;;;;;;18.27;13.50;;;39.10;34.90;;;;;;4405282;32;20080;-38
2021/06/25 06:08:39;;;;;;;15.73;14.10;;;39.00;34.90;;;;;;4404444;32;20077;-39
2021/06/25 06:11:06;;;;;;;15.82;13.30;;;38.90;35.00;;;;;;4405290;32;20101;-38
2021/06/25 06:13:32;;;;;;;15.00;13.57;;;38.70;35.20;;;;;;4371505;32;20557;-37
2021/06/25 06:15:59;;;;;;;41.67;14.87;;;38.50;35.20;;;;;;4371851;32;20582;-37
2021/06/25 06:18:29;;;;;;;13.90;12.80;;;38.40;35.40;;;;;;4360002;32;20097;-37
2021/06/25 06:20:55;;;;;;;14.90;13.52;;;38.30;35.60;;;;;;4371612;32;20094;-37
2021/06/25 06:31:41;;;;;;;13.32;11.95;;;38.90;35.40;;;;;;4372386;32;20105;-38
2021/06/25 06:34:12;;;;;;;14.43;12.63;;;39.10;35.10;;;;;;4372304;32;20098;-38
2021/06/25 06:36:45;;;;;;;13.70;12.18;;;39.30;35.00;;;;;;4372552;32;20623;-38
2021/06/25 06:39:13;;;;;;;18.15;12.23;;;39.40;34.70;;;;;;4372909;32;20462;-39
2021/06/25 06:41:40;;;;;;;13.20;12.10;;;39.60;34.70;;;;;;4372578;32;20534;-38
2021/06/25 06:44:07;;;;;;;15.13;13.60;;;39.70;34.00;;;;;;4359895;32;20459;-38
2021/06/25 06:46:34;;;;;;;13.60;12.35;;;39.80;33.80;;;;;;4359031;32;20066;-38
2021/06/25 06:49:01;;;;;;;13.93;12.48;;;39.80;33.50;;;;;;4346868;32;20148;-38
2021/06/25 06:51:28;;;;;;;12.85;11.60;;;39.60;33.30;;;;;;4389563;32;20503;-38
2021/06/25 06:53:58;;;;;;;13.25;11.93;;;39.40;33.30;;;;;;4404432;32;20496;-39
2021/06/25 06:56:24;;;;;;;13.95;12.35;;;39.20;33.80;;;;;;4404256;32;20481;-38
2021/06/25 06:58:53;;;;;;;15.00;12.60;;;39.10;34.10;;;;;;4386674;32;20549;-37
2021/06/25 07:01:21;;;;;;;14.23;12.85;;;39.00;34.00;;;;;;4374181;32;20085;-36
2021/06/25 07:03:48;;;;;;;16.55;15.02;;;39.00;34.40;;;;;;4374413;32;20058;-38
2021/06/25 07:06:15;;;;;;;13.68;12.25;;;39.00;34.20;;;;;;4386753;32;20061;-39
2021/06/25 07:08:41;;;;;;;16.90;12.45;;;39.10;33.70;;;;;;4386569;32;20065;-39
2021/06/25 07:11:08;;;;;;;16.00;12.55;;;39.00;33.70;;;;;;4343905;32;20094;-38
2021/06/25 07:13:34;;;;;;;14.68;13.25;;;38.80;33.70;;;;;;4343918;32;20518;-39
2021/06/25 07:16:01;;;;;;;15.02;13.50;;;38.70;34.10;;;;;;4356506;32;20243;-39
2021/06/25 07:18:27;;;;;;;15.30;13.90;;;38.60;34.50;;;;;;4356339;32;20095;-39
2021/06/25 07:20:54;;;;;;;15.05;13.52;;;38.50;34.60;;;;;;4356288;32;20186;-38
2021/06/25 07:23:20;;;;;;;15.10;13.00;;;38.50;35.00;;;;;;4356067;32;20082;-38
2021/06/25 07:25:47;;;;;;;14.40;12.90;;;38.70;34.70;;;;;;4356467;32;20495;-38
2021/06/25 07:28:13;;;;;;;13.43;12.27;;;38.90;34.50;;;;;;4355747;32;20077;-38
2021/06/25 07:30:40;;;;;;;14.20;12.88;;;39.00;34.30;;;;;;4355749;32;20216;-39
2021/06/25 07:33:07;;;;;;;16.92;13.65;;;39.10;34.40;;;;;;4343353;32;20645;-39
2021/06/25 07:35:33;;;;;;;16.67;14.80;;;39.20;34.60;;;;;;4358643;32;20140;-39
2021/06/25 07:38:00;;;;;;;19.67;15.15;;;39.30;34.80;;;;;;4370633;32;20070;-38
2021/06/25 07:40:26;;;;;;;16.05;14.15;;;39.60;34.90;;;;;;4370871;32;20165;-38
2021/06/25 07:42:53;;;;;;;15.98;14.35;;;39.60;34.70;;;;;;4370615;32;20094;-38
2021/06/25 07:45:19;;;;;;;19.75;14.30;;;39.60;34.70;;;;;;4325936;33;20125;-38
2021/06/25 07:47:46;;;;;;;15.23;13.68;;;39.60;34.70;;;;;;4326257;33;20070;-38
2021/06/25 07:50:15;;;;;;;18.15;14.02;;;39.70;34.60;;;;;;4328362;33;20147;-39
2021/06/25 07:52:42;;;;;;;17.17;14.57;;;39.70;34.50;;;;;;4328773;33;20549;-38
2021/06/25 07:55:10;;;;;;;13.93;12.52;;;39.70;34.40;;;;;;4328835;33;20102;-37
2021/06/25 07:57:36;;;;;;;17.77;12.07;;;39.60;34.10;;;;;;4340728;33;20188;-37
2021/06/25 08:00:06;;;;;;;15.45;11.57;;;39.60;34.20;;;;;;4340928;33;20189;-38
2021/06/25 08:02:32;;;;;;;13.85;11.82;;;39.80;33.90;;;;;;4340898;33;20083;-38
2021/06/25 08:04:59;;;;;;;18.17;12.00;;;39.80;33.60;;;;;;4328881;33;20071;-38
2021/06/25 08:07:25;;;;;;;17.58;13.65;;;39.70;33.80;;;;;;4340841;33;20075;-38
2021/06/25 08:09:52;;;;;;;18.42;13.40;;;39.70;34.20;;;;;;4328232;33;20175;-39
2021/06/25 08:12:18;;;;;;;14.70;13.35;;;39.70;34.30;;;;;;4328608;33;20577;-39
2021/06/25 08:14:45;;;;;;;14.43;12.90;;;39.70;34.40;;;;;;4340466;33;20093;-38
2021/06/25 08:17:11;;;;;;;15.98;14.70;;;39.80;34.40;;;;;;4340737;33;20153;-38
2021/06/25 08:19:37;;;;;;;16.80;13.77;;;39.70;34.50;;;;;;4328106;33;20116;-39
2021/06/25 08:22:04;;;;;;;15.82;13.10;;;39.70;34.60;;;;;;4337929;32;20518;-38
2021/06/25 08:24:33;;;;;;;15.38;13.82;;;39.70;34.50;;;;;;4387833;32;20070;-39
2021/06/25 08:27:00;;;;;;;15.82;14.27;;;39.40;34.60;;;;;;4387548;32;20077;-38
2021/06/25 08:29:27;;;;;;;15.80;12.50;;;39.20;35.00;;;;;;4373974;32;20142;-40
2021/06/25 08:31:54;;;;;;;18.02;13.30;;;39.10;35.00;;;;;;4387830;32;20166;-39
2021/06/25 08:34:20;;;;;;;14.18;12.70;;;39.00;35.00;;;;;;4374088;32;20086;-38
2021/06/25 08:36:46;;;;;;;13.25;11.98;;;39.00;35.20;;;;;;4373667;32;20096;-37
2021/06/25 08:39:13;;;;;;;12.55;11.52;;;39.20;35.20;;;;;;4373612;32;20066;-38
2021/06/25 08:41:39;;;;;;;12.18;10.73;;;39.30;34.60;;;;;;4374120;32;20525;-38
2021/06/25 08:44:06;;;;;;;14.30;10.15;;;39.20;34.10;;;;;;4387611;32;20058;-38
2021/06/25 08:46:33;;;;;;;13.90;10.65;;;39.20;34.40;;;;;;4387935;32;20465;-38
2021/06/25 08:49:04;;;;;;;11.95;10.45;;;39.40;34.50;;;;;;4373874;32;20137;-36
2021/06/25 08:51:33;;;;;;;13.80;10.50;;;39.60;34.70;;;;;;4386183;32;20057;-38
2021/06/25 08:54:00;;;;;;;13.13;10.15;;;39.80;33.80;;;;;;4387727;32;20102;-37
2021/06/25 08:56:32;;;;;;;12.75;9.70;;;39.90;33.80;;;;;;4373845;32;20073;-38
2021/06/25 08:59:00;;;;;;;10.63;9.63;;;40.20;33.60;;;;;;4387714;32;20061;-37
2021/06/25 09:01:31;;;;;;;12.18;8.88;;;40.40;33.30;;;;;;4375322;32;20130;-38
2021/06/25 09:03:58;;;;;;;13.18;8.45;;;40.50;32.90;;;;;;4377081;32;20058;-38
2021/06/25 09:06:26;;;;;;;10.98;9.23;;;40.50;32.90;;;;;;4376888;32;20072;-38
2021/06/25 09:08:52;;;;;;;11.85;9.18;;;40.40;33.10;;;;;;4376860;32;20061;-39
2021/06/25 09:11:23;;;;;;;15.82;9.30;;;40.50;33.40;;;;;;4363882;32;20489;-39
2021/06/25 09:14:02;;;;;;;11.80;9.73;;;40.50;33.60;;;;;;4390891;32;20077;-39
2021/06/25 09:16:30;;;;;;;10.25;8.68;;;40.50;33.80;;;;;;4390793;32;20142;-38
2021/06/25 09:19:17;;;;;;;12.57;9.43;;;40.40;33.60;;;;;;4389289;32;20058;-37
2021/06/25 09:21:59;;;;;;;12.48;9.05;;;40.40;33.40;;;;;;4390286;32;20076;-38
2021/06/25 09:24:27;;;;;;;12.25;7.95;;;40.50;33.60;;;;;;4390635;32;20108;-38
2021/06/25 09:27:05;;;;;;;9.65;7.53;;;40.60;33.10;;;;;;4390495;32;20061;-39
2021/06/25 09:29:36;;;;;;;10.65;7.43;;;40.70;33.00;;;;;;4390064;32;20092;-39
2021/06/25 09:32:05;;;;;;;14.93;8.48;;;40.80;32.90;;;;;;4390387;32;20100;-39
2021/06/25 09:34:41;;;;;;;13.52;7.68;;;40.80;33.00;;;;;;4376549;32;20081;-39
2021/06/25 09:37:13;;;;;;;12.95;8.63;;;40.90;32.90;;;;;;4390470;32;20065;-38
2021/06/25 09:40:04;;;;;;;18.05;7.37;;;40.90;33.20;;;;;;4390356;32;20136;-40
2021/06/25 09:42:31;;;;;;;12.80;7.93;;;41.10;33.30;;;;;;4377713;32;20066;-39
2021/06/25 09:45:02;;;;;;;13.00;7.53;;;41.20;33.00;;;;;;4389842;32;20138;-38
2021/06/25 09:47:34;;;;;;;13.82;8.10;;;41.30;32.70;;;;;;4390185;32;20061;-38
2021/06/25 09:50:18;;;;;;;16.23;8.35;;;41.30;33.10;;;;;;4390234;32;20066;-38
2021/06/25 09:53:03;;;;;;;14.75;7.18;;;41.50;32.00;;;;;;4389841;32;20545;-38
2021/06/25 09:55:52;;;;;;;12.82;7.78;;;41.50;31.80;;;;;;4388578;32;20536;-37
2021/06/25 09:58:34;;;;;;;5.37;4.60;;;41.50;31.60;;;;;;4389876;32;20101;-38
2021/06/25 10:01:23;;;;;;;10.77;7.07;;;41.70;29.40;;;;;;4390280;32;20057;-37
2021/06/25 10:04:02;;;;;;;16.10;6.62;;;42.10;28.60;;;;;;4389725;32;20158;-38
2021/06/25 10:06:30;;;;;;;10.95;7.22;;;42.50;28.50;;;;;;4388539;32;20073;-38
2021/06/25 10:08:57;;;;;;;6.22;2.95;;;42.90;30.40;;;;;;4389926;32;21015;-38
2021/06/25 10:11:31;;;;;;;15.90;6.03;;;43.10;26.90;;;;;;4389326;32;20145;-38
2021/06/25 10:14:00;;;;;;;10.65;6.60;;;43.00;27.00;;;;;;4375805;32;20109;-38
2021/06/25 10:16:27;;;;;;;9.35;5.32;;;43.20;27.40;;;;;;4389550;32;20061;-38
2021/06/25 10:18:58;;;;;;;7.35;5.22;;;43.10;26.40;;;;;;4375839;32;20054;-38
2021/06/25 10:21:33;;;;;;;8.32;3.30;;;42.90;26.30;;;;;;4388575;32;20066;-37
2021/06/25 10:24:04;;;;;;;12.02;5.18;;;42.90;27.10;;;;;;4387834;32;20093;-37
2021/06/25 10:26:31;;;;;;;10.25;5.20;;;42.70;27.50;;;;;;4389414;32;20174;-38
2021/06/25 10:28:57;;;;;;;9.35;5.60;;;42.80;27.60;;;;;;4377248;32;20461;-38
2021/06/25 10:31:25;;;;;;;9.52;6.15;;;42.90;27.70;;;;;;4402103;32;20514;-38
2021/06/25 10:33:55;;;;;;;4.68;2.95;;;43.00;27.50;;;;;;4402103;32;20595;-38
2021/06/25 10:36:31;;;;;;;9.40;5.32;;;43.00;26.90;;;;;;4371222;32;20176;-37
2021/06/25 10:39:10;;;;;;;3.35;2.28;;;42.80;27.20;;;;;;4372105;32;20074;-38
2021/06/25 10:41:57;;;;;;;15.05;7.72;;;42.60;27.10;;;;;;4371940;32;20097;-38
2021/06/25 10:44:40;;;;;;;11.80;5.30;;;42.60;27.20;;;;;;4341280;33;20082;-37
2021/06/25 10:47:27;;;;;;;9.68;5.57;;;42.70;26.90;;;;;;4342267;33;20185;-37
2021/06/25 10:49:59;;;;;;;8.27;4.30;;;42.90;27.00;;;;;;4342169;33;20520;-39
2021/06/25 10:52:36;;;;;;;11.73;6.05;;;43.00;27.00;;;;;;4312131;33;20060;-39
2021/06/25 10:55:12;;;;;;;6.78;5.45;;;43.20;26.90;;;;;;4312497;33;20075;-39
2021/06/25 10:57:58;;;;;;;4.65;3.30;;;43.20;26.80;;;;;;4311953;33;20182;-38
2021/06/25 11:00:28;;;;;;;15.93;6.18;;;43.20;26.70;;;;;;4307272;33;20242;-39
2021/06/25 11:02:54;;;;;;;7.70;3.90;;;43.20;26.90;;;;;;4312718;33;20214;-39
2021/06/25 11:05:27;;;;;;;10.25;5.45;;;43.10;26.70;;;;;;4312047;33;20198;-38
2021/06/25 11:07:57;;;;;;;6.90;4.40;;;42.90;26.30;;;;;;4332727;33;20110;-38
2021/06/25 11:10:34;;;;;;;5.65;3.85;;;42.80;26.40;;;;;;4329761;33;20067;-39
2021/06/25 11:13:12;;;;;;;11.63;5.65;;;42.70;26.70;;;;;;4341857;33;20083;-38
2021/06/25 11:15:46;;;;;;;6.37;5.10;;;42.70;26.70;;;;;;4359218;32;20066;-38
2021/06/25 11:18:45;;;;;;;11.65;5.82;;;42.60;26.90;;;;;;4358980;32;20058;-39
2021/06/25 11:21:11;;;;;;;11.38;6.07;;;42.70;27.10;;;;;;4369295;32;20070;-39
2021/06/25 11:23:38;;;;;;;10.95;5.62;;;42.80;26.80;;;;;;4358316;32;20066;-38
2021/06/25 11:26:20;;;;;;;12.25;6.07;;;43.00;26.70;;;;;;4371176;32;20161;-38
2021/06/25 11:28:50;;;;;;;5.43;4.93;;;43.10;26.40;;;;;;4371646;32;20482;-38
2021/06/25 11:31:18;;;;;;;9.68;4.70;;;43.30;26.30;;;;;;4387099;32;20069;-38
2021/06/25 11:33:50;;;;;;;7.93;5.47;;;43.50;25.80;;;;;;4388776;32;20058;-40
2021/06/25 11:36:51;;;;;;;3.77;3.07;;;43.50;25.80;;;;;;4388544;32;20084;-38
2021/06/25 11:39:17;;;;;;;10.73;5.30;;;43.50;25.90;;;;;;4388420;32;20174;-39
2021/06/25 11:42:08;;;;;;;12.48;5.28;;;43.40;26.20;;;;;;4388001;32;20537;-39
2021/06/25 11:44:45;;;;;;;8.57;5.40;;;43.40;26.20;;;;;;4388499;32;20624;-38
2021/06/25 11:47:22;;;;;;;7.87;3.25;;;43.40;26.00;;;;;;4388143;32;20552;-37
2021/06/25 11:50:02;;;;;;;7.62;5.72;;;43.20;25.80;;;;;;4388356;32;20145;-38
2021/06/25 11:52:30;;;;;;;6.57;5.03;;;43.00;25.90;;;;;;4375174;32;20070;-39
2021/06/25 11:55:06;;;;;;;12.60;5.87;;;42.90;26.00;;;;;;4374346;32;20090;-38
2021/06/25 11:57:34;;;;;;;6.55;5.10;;;42.80;26.30;;;;;;4374507;32;20497;-39
2021/06/25 12:00:14;;;;;;;9.35;5.85;;;42.80;26.20;;;;;;4388744;32;20494;-38
2021/06/25 12:02:47;;;;;;;7.28;4.95;;;42.80;26.50;;;;;;4388439;32;20077;-39
2021/06/25 12:05:26;;;;;;;7.68;5.18;;;42.90;26.40;;;;;;4388309;32;20057;-39
2021/06/25 12:08:14;;;;;;;10.70;5.60;;;43.00;26.40;;;;;;4388293;32;20064;-38
2021/06/25 12:11:03;;;;;;;9.45;5.53;;;43.00;26.30;;;;;;4374263;32;20071;-40
2021/06/25 12:13:31;;;;;;;5.18;3.42;;;43.10;26.60;;;;;;4364154;32;20080;-39
2021/06/25 12:15:57;;;;;;;7.85;5.97;;;43.10;26.40;;;;;;4387486;32;20084;-37
2021/06/25 12:18:27;;;;;;;6.00;5.40;;;43.00;26.40;;;;;;4373581;32;20057;-38
2021/06/25 12:21:08;;;;;;;9.95;3.83;;;43.00;26.30;;;;;;4387807;32;20624;-37
2021/06/25 12:23:35;;;;;;;2.72;2.33;;;42.90;26.40;;;;;;4374018;32;20061;-38
2021/06/25 12:26:28;;;;;;;3.97;2.35;;;42.70;26.60;;;;;;4373896;32;20132;-38
2021/06/25 12:29:01;;;;;;;10.38;6.30;;;42.50;26.60;;;;;;4376331;32;20057;-39
2021/06/25 12:31:33;;;;;;;3.33;2.57;;;42.40;26.90;;;;;;4387823;32;20109;-38
2021/06/25 12:34:09;;;;;;;6.15;4.15;;;42.40;26.80;;;;;;4387849;32;20088;-39
2021/06/25 12:36:37;;;;;;;7.12;3.28;;;42.20;26.90;;;;;;4355058;32;20059;-39
2021/06/25 12:39:08;;;;;;;8.32;4.18;;;42.00;27.00;;;;;;4355743;32;20642;-38
2021/06/25 12:41:46;;;;;;;5.70;5.25;;;41.90;27.10;;;;;;4355513;32;20582;-38
2021/06/25 12:44:12;;;;;;;7.82;5.05;;;41.90;27.10;;;;;;4355393;32;20192;-38
2021/06/25 12:46:39;;;;;;;6.90;3.78;;;42.00;27.10;;;;;;4355060;32;20476;-38
2021/06/25 12:49:06;;;;;;;7.70;4.10;;;42.00;27.00;;;;;;4355603;32;20213;-38